EDT,Max TemperatureF,Mean TemperatureF,Min TemperatureF,Max Dew PointF,MeanDew PointF,Min DewpointF,Max Humidity, Mean Humidity, Min Humidity, Max Sea Level PressureIn, Mean Sea Level PressureIn, Min Sea Level PressureIn, Max VisibilityMiles, Mean VisibilityMiles, Min VisibilityMiles, Max Wind SpeedMPH, Mean Wind SpeedMPH, Max Gust SpeedMPH,PrecipitationIn, CloudCover, Events, WindDirDegrees
2012-9-1,82,74,66,67,64,61,93,76,58,30.15,30.10,30.03,10,8,0,8,3,10,0.00,4,Fog,255
2012-9-2,80,73,65,67,66,64,100,84,67,30.09,30.05,29.99,10,7,0,9,3,12,0.00,7,Fog,108
2012-9-3,80,73,66,68,66,64,93,80,67,30.07,30.02,29.97,10,8,3,13,7,20,0.00,6,,120
2012-9-4,82,75,67,70,68,66,100,79,58,30.00,29.90,29.82,10,7,0,18,6,29,0.07,6,Fog-Rain-Thunderstorm,192
2012-9-5,80,73,65,68,64,60,97,74,51,29.93,29.87,29.81,10,8,1,10,4,13,0.01,6,,342
2012-9-6,85,74,62,66,62,60,93,69,44,29.95,29.89,29.86,10,10,8,15,4,21,T,1,Rain,262
2012-9-7,83,71,59,65,61,57,100,73,45,29.99,29.93,29.77,10,4,0,13,3,17,0.00,1,Fog,176
2012-9-8,70,61,51,63,58,50,96,84,72,29.84,29.69,29.58,10,8,1,29,8,39,0.53,6,Rain-Thunderstorm,250
2012-9-9,68,59,49,54,51,48,100,78,56,30.03,29.93,29.85,10,8,2,24,6,30,0.10,5,Rain,256
2012-9-10,66,55,43,48,43,35,100,67,34,30.22,30.11,30.04,10,7,0,14,5,22,0.00,1,Fog,288
2012-9-11,70,56,41,49,44,38,89,67,44,30.32,30.28,30.23,10,10,10,9,2,13,0.00,0,,240
2012-9-12,76,61,45,54,48,44,93,65,36,30.36,30.31,30.29,10,9,1,10,3,16,0.00,0,,132
2012-9-13,78,65,52,57,54,50,96,68,40,30.35,30.30,30.25,10,10,6,9,2,13,0.00,1,,174
2012-9-14,78,64,49,61,56,50,96,73,50,30.25,30.20,30.11,10,10,5,20,6,25,0.10,4,Rain,297
2012-9-15,67,57,46,52,47,43,100,74,48,30.31,30.25,30.18,10,6,0,13,6,20,0.00,3,Fog,274
2012-9-16,68,55,42,49,45,40,100,74,48,30.20,30.15,30.10,10,10,10,12,2,15,0.00,1,,255
2012-9-17,73,58,43,55,48,43,93,69,44,30.11,30.03,29.89,10,9,2,14,5,20,0.09,1,,126
2012-9-18,67,58,48,61,57,48,100,91,81,29.89,29.69,29.55,10,6,1,18,8,25,1.60,8,Rain,229
2012-9-19,60,50,40,46,41,35,100,70,40,30.19,30.05,29.89,10,8,0,15,6,21,0.00,3,Fog,264
2012-9-20,69,55,40,50,42,36,92,64,35,30.17,30.07,29.99,10,10,10,13,6,18,0.00,1,,145
2012-9-21,73,65,56,54,51,45,93,66,38,30.00,29.95,29.83,10,10,10,20,8,25,0.05,6,,202
2012-9-22,67,56,44,57,51,41,93,70,46,30.02,29.83,29.71,10,10,4,25,11,36,0.14,6,Rain,243
2012-9-23,55,48,41,45,42,38,96,78,59,30.19,30.11,30.03,10,10,9,16,6,21,0.03,7,Rain,267
2012-9-24,56,47,38,43,38,34,100,75,50,30.23,30.17,30.09,10,8,1,18,7,26,0.00,5,,235
2012-9-25,64,52,39,52,43,34,93,70,46,30.13,30.08,30.03,10,9,2,17,6,23,0.04,5,Rain,200
2012-9-26,61,58,55,59,57,52,97,92,86,30.11,30.05,30.00,10,5,2,17,10,23,0.70,8,Rain,228
2012-9-27,64,60,55,59,56,52,97,85,72,30.21,30.14,30.09,10,5,1,9,4,13,0.62,8,Rain,43
2012-9-28,57,53,48,56,51,47,100,86,72,30.10,30.07,30.05,10,7,0,15,6,20,0.07,8,Fog-Rain,291
2012-9-29,62,51,40,47,43,39,96,72,48,30.06,30.02,29.93,10,4,0,12,3,18,0.00,5,Fog,269
2012-9-30,59,50,41,46,44,41,100,78,55,29.92,29.88,29.85,10,6,0,17,4,23,0.04,5,Fog-Thunderstorm,340